Time;durP1;ratioP1;P1;durP2;ratioP2;P2;SDS_P1;SDS_P2;PMS_P1;PMS_P2;Temp;Humidity;BMP_temperature;BMP_pressure;BME280_temperature;BME280_humidity;BME280_pressure;Samples;Min_cycle;Max_cycle;Signal;HPM_P1;HPM_P2
2021/05/13 00:01:56;;;;;;;19.13;17.23;;;11.00;99.90;;;;;;5034105;28;20426;-85
2021/05/13 00:04:22;;;;;;;20.50;18.40;;;11.00;99.90;;;;;;5034740;28;20423;-85
2021/05/13 00:06:50;;;;;;;22.15;19.95;;;10.80;99.90;;;;;;5034637;28;20438;-85
2021/05/13 00:09:16;;;;;;;23.13;20.92;;;10.80;99.90;;;;;;5034496;28;20502;-85
2021/05/13 00:11:45;;;;;;;22.65;20.45;;;10.70;99.90;;;;;;5034452;28;20965;-85
2021/05/13 00:14:12;;;;;;;26.55;24.05;;;10.60;99.90;;;;;;5034391;28;20514;-86
2021/05/13 00:16:38;;;;;;;26.60;24.05;;;10.60;99.90;;;;;;5034463;28;20522;-86
2021/05/13 00:19:07;;;;;;;26.80;23.98;;;10.40;99.90;;;;;;5034109;28;20562;-86
2021/05/13 00:21:34;;;;;;;27.73;25.02;;;10.60;99.90;;;;;;5034502;28;20430;-84
2021/05/13 00:24:01;;;;;;;28.63;25.73;;;10.60;99.90;;;;;;5034427;28;20846;-85
2021/05/13 00:26:36;;;;;;;28.58;25.88;;;10.60;99.90;;;;;;5033534;28;20424;-85
2021/05/13 00:29:03;;;;;;;27.63;24.85;;;10.60;99.90;;;;;;5035136;28;20430;-86
2021/05/13 00:31:31;;;;;;;28.77;25.70;;;10.60;99.90;;;;;;5034102;28;20470;-85
2021/05/13 00:33:59;;;;;;;29.05;26.05;;;10.60;99.90;;;;;;5033960;28;20467;-85
2021/05/13 00:36:26;;;;;;;27.25;24.55;;;10.60;99.90;;;;;;5033695;28;21019;-85
2021/05/13 00:38:52;;;;;;;24.73;22.13;;;10.60;99.90;;;;;;5034337;28;20419;-85
2021/05/13 00:41:20;;;;;;;23.13;20.83;;;10.60;99.90;;;;;;5033765;28;20427;-85
2021/05/13 00:43:46;;;;;;;22.95;18.45;;;10.50;99.90;;;;;;5033985;28;20454;-84
2021/05/13 00:46:12;;;;;;;21.30;19.30;;;10.50;99.90;;;;;;5033340;28;20427;-85
2021/05/13 00:48:40;;;;;;;18.45;16.55;;;10.50;99.90;;;;;;5034110;28;20418;-85
2021/05/13 00:51:07;;;;;;;18.08;16.38;;;10.50;99.90;;;;;;5033605;28;20458;-85
2021/05/13 00:53:33;;;;;;;18.38;16.58;;;10.50;99.90;;;;;;5029735;28;20444;-86
2021/05/13 00:55:59;;;;;;;18.48;16.60;;;10.50;99.90;;;;;;5029070;28;20466;-85
2021/05/13 00:58:29;;;;;;;17.17;15.57;;;10.50;99.90;;;;;;5033742;28;20426;-86
2021/05/13 01:01:04;;;;;;;16.33;14.82;;;10.60;99.90;;;;;;5033500;28;20491;-84
2021/05/13 01:03:34;;;;;;;16.33;14.82;;;10.70;99.90;;;;;;5033907;28;20926;-85
2021/05/13 01:06:00;;;;;;;16.17;14.57;;;10.80;99.90;;;;;;5034034;28;20430;-85
2021/05/13 01:08:26;;;;;;;17.23;15.43;;;10.80;99.90;;;;;;5033803;28;20918;-85
2021/05/13 01:10:53;;;;;;;17.52;15.57;;;10.80;99.90;;;;;;5033781;28;20579;-86
2021/05/13 01:13:22;;;;;;;18.07;16.13;;;10.80;99.90;;;;;;5034738;28;20439;-85
2021/05/13 01:15:53;;;;;;;16.73;15.13;;;10.90;99.90;;;;;;5043863;28;20513;-86
2021/05/13 01:18:21;;;;;;;16.83;15.23;;;10.90;99.90;;;;;;5043478;28;20783;-87
2021/05/13 01:20:49;;;;;;;16.73;15.10;;;10.90;99.90;;;;;;5035854;28;20826;-86
2021/05/13 01:23:18;;;;;;;17.00;15.30;;;10.90;99.90;;;;;;5037062;28;20430;-86
2021/05/13 01:25:48;;;;;;;17.33;15.00;;;10.80;99.90;;;;;;5038001;28;20910;-86
2021/05/13 01:28:14;;;;;;;16.50;14.88;;;10.80;99.90;;;;;;5051189;28;20398;-86
2021/05/13 01:30:43;;;;;;;16.02;14.52;;;10.80;99.90;;;;;;5055484;28;20423;-87
2021/05/13 01:33:11;;;;;;;17.20;15.00;;;10.80;99.90;;;;;;5043867;28;20489;-85
2021/05/13 01:35:37;;;;;;;16.48;14.88;;;10.80;99.90;;;;;;5038499;28;20983;-86
2021/05/13 01:38:06;;;;;;;16.13;14.63;;;10.80;99.90;;;;;;5040814;28;20498;-86
2021/05/13 01:40:34;;;;;;;16.60;15.00;;;10.80;99.90;;;;;;5032547;28;21040;-86
2021/05/13 01:43:03;;;;;;;16.83;15.23;;;10.70;99.90;;;;;;5045100;28;20430;-86
2021/05/13 01:45:30;;;;;;;15.95;14.25;;;10.80;99.90;;;;;;5044774;28;20970;-86
2021/05/13 01:48:02;;;;;;;15.52;14.00;;;10.70;99.90;;;;;;5049407;28;20490;-85
2021/05/13 01:50:30;;;;;;;15.82;14.30;;;10.70;99.90;;;;;;5057163;28;20474;-85
2021/05/13 01:52:59;;;;;;;16.27;14.57;;;10.70;99.90;;;;;;5057177;28;20534;-84
2021/05/13 01:55:26;;;;;;;16.52;14.82;;;10.60;99.90;;;;;;5058052;28;20407;-85
2021/05/13 01:57:54;;;;;;;16.05;14.50;;;10.50;99.90;;;;;;5049439;28;20429;-86
2021/05/13 02:00:21;;;;;;;16.77;15.07;;;10.60;99.90;;;;;;5046275;28;20458;-85
2021/05/13 02:02:48;;;;;;;16.20;14.60;;;10.40;99.90;;;;;;5049964;28;20422;-84
2021/05/13 02:05:15;;;;;;;15.50;13.90;;;10.40;99.90;;;;;;5046607;28;20426;-86
2021/05/13 02:07:43;;;;;;;15.93;14.07;;;10.30;99.90;;;;;;5039879;28;20793;-86
2021/05/13 02:10:11;;;;;;;17.38;15.38;;;10.20;99.90;;;;;;5040144;28;20768;-85
2021/05/13 02:12:38;;;;;;;16.08;14.52;;;10.10;99.90;;;;;;5048467;28;20423;-85
2021/05/13 02:18:16;;;;;;;15.98;14.48;;;9.90;99.90;;;;;;5042882;28;20411;-85
2021/05/13 02:20:43;;;;;;;15.85;14.35;;;9.80;99.90;;;;;;5045821;28;20878;-85
2021/05/13 02:23:10;;;;;;;16.75;15.02;;;9.70;99.90;;;;;;5050231;28;20452;-86
2021/05/13 02:25:38;;;;;;;16.30;14.60;;;9.60;99.90;;;;;;5051274;28;20557;-86
2021/05/13 02:28:05;;;;;;;17.05;15.25;;;9.50;99.90;;;;;;5045279;28;20415;-86
2021/05/13 02:30:31;;;;;;;18.13;16.23;;;9.40;99.90;;;;;;5039758;28;20481;-86
2021/05/13 02:32:58;;;;;;;18.13;16.40;;;9.40;99.90;;;;;;5038846;28;20442;-85
2021/05/13 02:35:25;;;;;;;17.58;15.77;;;9.30;99.90;;;;;;5039536;28;20427;-86
2021/05/13 02:37:51;;;;;;;17.10;15.48;;;9.30;99.90;;;;;;5041879;28;20429;-86
2021/05/13 02:40:18;;;;;;;19.77;17.77;;;9.20;99.90;;;;;;5048400;28;20419;-87
2021/05/13 02:42:45;;;;;;;19.23;17.42;;;9.10;99.90;;;;;;5048463;28;20449;-85
2021/05/13 02:45:13;;;;;;;19.50;17.60;;;9.10;99.90;;;;;;5048888;28;20766;-86
2021/05/13 02:47:39;;;;;;;20.17;18.17;;;9.10;99.90;;;;;;5048254;28;20517;-86
2021/05/13 02:50:08;;;;;;;18.30;16.60;;;9.00;99.90;;;;;;5048876;28;20449;-86
2021/05/13 02:52:36;;;;;;;18.65;16.65;;;8.90;99.90;;;;;;5043147;28;20529;-87
2021/05/13 02:55:04;;;;;;;17.95;16.05;;;8.90;99.90;;;;;;5043892;28;20891;-86
2021/05/13 02:57:30;;;;;;;20.30;18.30;;;8.80;99.90;;;;;;5044935;28;20427;-87
2021/05/13 03:00:02;;;;;;;22.25;20.05;;;8.80;99.90;;;;;;5063211;28;20569;-87
2021/05/13 03:02:29;;;;;;;22.98;20.58;;;8.80;99.90;;;;;;5055750;28;20438;-86
2021/05/13 03:04:55;;;;;;;21.97;19.87;;;8.70;99.90;;;;;;5039336;28;20423;-86
2021/05/13 03:07:22;;;;;;;23.52;20.90;;;8.70;99.90;;;;;;5037289;28;20527;-86
2021/05/13 03:09:54;;;;;;;26.02;23.23;;;8.60;99.90;;;;;;5036160;28;20419;-85
2021/05/13 03:12:21;;;;;;;25.10;22.40;;;8.60;99.90;;;;;;5035896;28;20919;-86
2021/05/13 03:14:47;;;;;;;25.27;22.67;;;8.60;99.90;;;;;;5035780;28;20434;-86
2021/05/13 03:17:13;;;;;;;23.58;21.17;;;8.60;99.90;;;;;;5035714;28;20425;-86
2021/05/13 03:19:43;;;;;;;24.92;22.42;;;8.50;99.90;;;;;;5035762;28;20430;-85
2021/05/13 03:22:12;;;;;;;19.83;17.73;;;8.40;99.90;;;;;;5036473;28;20228;-86
2021/05/13 03:24:44;;;;;;;20.23;18.23;;;8.40;99.90;;;;;;5036613;28;20185;-86
2021/05/13 03:27:14;;;;;;;20.75;18.52;;;8.20;99.90;;;;;;5036786;28;20188;-86
2021/05/13 03:29:40;;;;;;;20.00;18.13;;;8.10;99.90;;;;;;5035285;28;20280;-87
2021/05/13 03:32:07;;;;;;;21.35;19.05;;;8.00;99.90;;;;;;5036142;28;20197;-85
2021/05/13 03:34:33;;;;;;;22.35;19.48;;;7.90;99.90;;;;;;5036390;28;20189;-85
2021/05/13 03:36:59;;;;;;;22.00;19.20;;;7.90;99.90;;;;;;5036763;28;20204;-86
2021/05/13 03:39:26;;;;;;;23.80;21.08;;;7.80;99.90;;;;;;5036806;28;20644;-85
2021/05/13 03:41:52;;;;;;;27.35;24.45;;;7.80;99.90;;;;;;5041279;28;20187;-86
2021/05/13 03:44:19;;;;;;;25.20;22.48;;;7.90;99.90;;;;;;5037207;28;20212;-87
2021/05/13 03:46:45;;;;;;;26.13;23.33;;;7.90;99.90;;;;;;5036702;28;20230;-86
2021/05/13 03:49:12;;;;;;;26.02;23.40;;;7.90;99.90;;;;;;5036781;28;20189;-85
2021/05/13 03:51:38;;;;;;;29.00;24.35;;;7.80;99.90;;;;;;5036037;28;20177;-85
2021/05/13 03:54:05;;;;;;;26.85;23.30;;;7.80;99.90;;;;;;5036185;28;20270;-87
2021/05/13 03:56:31;;;;;;;30.83;24.00;;;8.10;99.90;;;;;;5037785;28;20207;-85
2021/05/13 03:59:02;;;;;;;28.25;25.20;;;8.00;99.90;;;;;;5039433;28;20189;-87
2021/05/13 04:01:43;;;;;;;27.52;24.10;;;7.90;99.90;;;;;;5040296;28;20192;-86
2021/05/13 04:04:10;;;;;;;24.75;22.25;;;7.90;99.90;;;;;;5039185;28;20177;-86
2021/05/13 04:06:37;;;;;;;28.00;22.55;;;7.80;99.90;;;;;;5038229;28;20197;-86
2021/05/13 04:09:08;;;;;;;24.40;21.98;;;7.80;99.90;;;;;;5037602;28;20193;-85
2021/05/13 04:11:35;;;;;;;25.63;22.05;;;7.80;99.90;;;;;;5045442;28;20223;-87
2021/05/13 04:14:01;;;;;;;26.35;23.73;;;7.80;99.90;;;;;;5043426;28;20359;-87
2021/05/13 04:16:29;;;;;;;23.10;20.55;;;7.70;99.90;;;;;;5035719;28;20189;-87
2021/05/13 04:18:56;;;;;;;23.75;21.05;;;7.80;99.90;;;;;;5034930;28;20181;-86
2021/05/13 04:21:22;;;;;;;24.63;22.02;;;7.70;99.90;;;;;;5033792;28;20259;-86
2021/05/13 04:23:49;;;;;;;27.25;22.40;;;7.80;99.90;;;;;;5035962;28;20216;-86
2021/05/13 04:26:15;;;;;;;25.33;22.73;;;7.80;99.90;;;;;;5035774;28;20194;-86
2021/05/13 04:28:42;;;;;;;24.98;22.67;;;7.70;99.90;;;;;;5015958;28;20186;-86
2021/05/13 04:31:08;;;;;;;25.08;22.50;;;7.80;99.90;;;;;;5034491;28;20188;-86
2021/05/13 04:33:34;;;;;;;26.40;23.85;;;7.80;99.90;;;;;;5036145;28;20216;-86
2021/05/13 04:36:02;;;;;;;25.50;22.77;;;7.80;99.90;;;;;;5035566;28;20234;-87
2021/05/13 04:38:28;;;;;;;26.40;23.63;;;7.80;99.90;;;;;;5036431;28;20199;-87
2021/05/13 04:40:54;;;;;;;26.25;23.65;;;7.90;99.90;;;;;;5036522;28;20272;-85
2021/05/13 04:43:21;;;;;;;30.98;26.42;;;7.90;99.90;;;;;;5042355;28;20187;-86
2021/05/13 04:45:48;;;;;;;30.58;26.58;;;7.90;99.90;;;;;;5044610;28;20252;-86
2021/05/13 04:48:17;;;;;;;28.13;25.25;;;8.00;99.90;;;;;;5043660;28;20185;-86
2021/05/13 04:50:44;;;;;;;29.75;26.00;;;8.10;99.90;;;;;;5044887;28;20628;-85
2021/05/13 04:53:11;;;;;;;37.85;29.52;;;8.20;99.90;;;;;;5036678;28;20211;-85
2021/05/13 04:55:39;;;;;;;29.35;26.17;;;8.20;99.90;;;;;;5042638;28;20176;-85
2021/05/13 04:58:05;;;;;;;31.38;27.67;;;8.30;99.90;;;;;;5042696;28;20189;-84
2021/05/13 05:00:32;;;;;;;31.05;27.70;;;8.40;99.90;;;;;;5041360;28;20189;-85
2021/05/13 05:02:58;;;;;;;30.10;26.90;;;8.50;99.90;;;;;;5034077;28;20189;-85
2021/05/13 05:05:25;;;;;;;30.38;27.17;;;8.60;99.90;;;;;;5036049;28;20193;-85
2021/05/13 05:07:51;;;;;;;33.25;29.30;;;8.70;99.90;;;;;;5036609;28;20246;-86
2021/05/13 05:10:19;;;;;;;33.38;29.67;;;8.70;99.90;;;;;;5042569;28;20199;-86
2021/05/13 05:12:45;;;;;;;31.80;28.45;;;8.80;99.90;;;;;;5034870;28;20211;-87
2021/05/13 05:15:12;;;;;;;30.92;27.73;;;8.90;99.90;;;;;;5034602;28;20271;-86
2021/05/13 05:17:39;;;;;;;32.60;28.63;;;8.90;99.90;;;;;;5034388;28;20196;-86
2021/05/13 05:20:06;;;;;;;36.55;32.63;;;9.00;99.90;;;;;;5034525;28;20193;-87
2021/05/13 05:22:33;;;;;;;33.03;29.42;;;9.10;99.90;;;;;;5032210;28;20315;-87
2021/05/13 05:25:00;;;;;;;31.55;28.25;;;9.20;99.90;;;;;;5033817;28;20193;-85
2021/05/13 05:27:27;;;;;;;34.78;31.08;;;9.20;99.90;;;;;;5033388;28;20275;-85
2021/05/13 05:29:53;;;;;;;33.85;30.17;;;9.30;99.90;;;;;;5033946;28;20197;-85
2021/05/13 05:32:20;;;;;;;34.45;30.58;;;9.40;99.90;;;;;;5033505;28;20231;-85
2021/05/13 05:34:50;;;;;;;34.90;30.67;;;9.50;99.90;;;;;;5036087;28;20197;-86
2021/05/13 05:37:16;;;;;;;36.95;33.13;;;9.50;99.90;;;;;;5033991;28;20189;-84
2021/05/13 05:39:43;;;;;;;44.58;35.80;;;9.60;99.90;;;;;;5033371;28;20218;-86
2021/05/13 05:42:09;;;;;;;42.90;35.70;;;9.70;99.90;;;;;;5033724;28;20242;-85
2021/05/13 05:44:36;;;;;;;46.47;35.85;;;9.80;99.90;;;;;;5033319;28;20284;-85
2021/05/13 05:47:02;;;;;;;44.10;38.83;;;9.90;99.90;;;;;;5034147;28;20184;-84
2021/05/13 05:49:29;;;;;;;51.03;39.05;;;10.10;99.90;;;;;;5032631;28;20631;-85
2021/05/13 05:51:55;;;;;;;42.90;38.25;;;10.20;99.90;;;;;;5033492;28;20189;-85
2021/05/13 05:54:21;;;;;;;43.08;38.35;;;10.30;99.90;;;;;;5033082;28;20683;-85
2021/05/13 05:56:47;;;;;;;46.85;38.08;;;10.40;99.90;;;;;;5033241;28;20197;-84
2021/05/13 05:59:14;;;;;;;45.17;39.22;;;10.50;99.90;;;;;;5033194;28;20184;-85
2021/05/13 06:01:41;;;;;;;45.17;38.60;;;10.60;99.90;;;;;;5031150;28;20191;-86
2021/05/13 06:04:08;;;;;;;48.25;39.78;;;10.60;99.90;;;;;;5031793;28;20644;-85
2021/05/13 06:06:36;;;;;;;44.83;38.38;;;10.70;99.90;;;;;;5032017;28;20199;-86
2021/05/13 06:09:04;;;;;;;48.97;42.15;;;10.80;99.90;;;;;;5027195;28;20334;-89
2021/05/13 06:11:30;;;;;;;52.40;42.53;;;10.90;99.90;;;;;;5040573;28;20253;-87
2021/05/13 06:13:57;;;;;;;44.88;38.13;;;11.00;99.90;;;;;;5047620;28;20280;-86
2021/05/13 06:16:23;;;;;;;36.38;30.25;;;11.20;99.90;;;;;;5053988;28;20237;-87
2021/05/13 06:18:52;;;;;;;32.28;28.30;;;11.30;99.90;;;;;;5056998;28;20209;-87
2021/05/13 06:21:19;;;;;;;33.00;29.60;;;11.40;99.90;;;;;;5039234;28;20216;-86
2021/05/13 06:23:50;;;;;;;31.98;28.52;;;11.50;99.90;;;;;;5033311;28;20213;-87
2021/05/13 06:26:25;;;;;;;30.25;27.02;;;11.70;99.90;;;;;;5031590;28;20189;-87
2021/05/13 06:28:52;;;;;;;30.65;27.40;;;11.70;99.90;;;;;;5034165;28;20224;-88
2021/05/13 06:31:18;;;;;;;27.83;24.77;;;11.80;99.90;;;;;;5033111;28;20279;-87
2021/05/13 06:33:45;;;;;;;28.63;25.40;;;11.90;99.90;;;;;;5033080;28;20234;-86
2021/05/13 06:36:12;;;;;;;27.40;24.50;;;12.10;99.90;;;;;;5032216;28;20207;-87
2021/05/13 06:38:39;;;;;;;28.52;25.42;;;12.10;99.90;;;;;;5033360;28;20584;-87
2021/05/13 06:41:08;;;;;;;26.80;20.85;;;12.20;99.90;;;;;;5033074;28;20670;-89
2021/05/13 06:43:35;;;;;;;20.58;18.48;;;12.30;99.90;;;;;;5035224;28;20235;-86
2021/05/13 06:46:02;;;;;;;20.85;17.45;;;12.40;99.90;;;;;;5036491;28;20196;-87
2021/05/13 06:48:29;;;;;;;21.27;16.63;;;12.50;99.90;;;;;;5036517;28;20192;-88
2021/05/13 06:50:55;;;;;;;23.33;16.60;;;12.50;99.90;;;;;;5036570;28;20214;-87
2021/05/13 06:53:22;;;;;;;16.13;14.50;;;12.60;99.90;;;;;;5036544;28;20204;-88
2021/05/13 06:55:52;;;;;;;17.80;16.08;;;12.70;99.90;;;;;;5036530;28;20185;-88
2021/05/13 06:58:19;;;;;;;17.70;15.90;;;12.90;99.90;;;;;;5036640;28;20695;-89
2021/05/13 07:00:45;;;;;;;16.70;14.43;;;13.00;99.90;;;;;;5036601;28;20201;-86
2021/05/13 07:03:11;;;;;;;13.52;11.80;;;13.20;99.90;;;;;;5037093;28;20208;-88
2021/05/13 07:05:38;;;;;;;11.45;9.38;;;13.30;99.90;;;;;;5037061;28;20197;-87
2021/05/13 07:08:05;;;;;;;13.25;10.10;;;13.40;99.90;;;;;;5037016;28;20277;-88
2021/05/13 07:10:34;;;;;;;9.27;7.70;;;13.50;99.90;;;;;;5036539;28;20268;-86
2021/05/13 07:13:00;;;;;;;11.75;8.05;;;13.60;99.90;;;;;;5036770;28;20236;-88
2021/05/13 07:15:26;;;;;;;9.50;7.88;;;13.70;99.90;;;;;;5036749;28;20189;-88
2021/05/13 07:17:53;;;;;;;12.15;8.63;;;13.70;99.90;;;;;;5036923;28;20648;-87
2021/05/13 07:20:21;;;;;;;10.25;9.13;;;13.80;99.90;;;;;;5036826;28;20191;-88
2021/05/13 07:22:47;;;;;;;9.30;8.40;;;13.80;99.90;;;;;;5037688;28;20232;-88
2021/05/13 07:25:13;;;;;;;11.55;10.30;;;13.90;99.90;;;;;;5036366;28;20266;-88
2021/05/13 07:27:40;;;;;;;11.50;9.88;;;14.00;99.90;;;;;;5036976;28;20518;-88
2021/05/13 07:30:09;;;;;;;9.77;8.02;;;14.10;99.90;;;;;;5036510;28;20277;-88
2021/05/13 07:32:35;;;;;;;10.88;9.43;;;14.10;99.90;;;;;;5037555;28;20185;-88
2021/05/13 07:35:01;;;;;;;12.38;10.95;;;14.20;99.90;;;;;;5042216;28;20180;-87
2021/05/13 07:37:28;;;;;;;11.32;10.15;;;14.30;99.90;;;;;;5049844;28;20226;-87
2021/05/13 07:39:54;;;;;;;11.77;9.52;;;14.30;99.90;;;;;;5031047;28;20193;-86
2021/05/13 07:42:20;;;;;;;15.77;12.05;;;14.40;99.90;;;;;;5017803;28;20557;-87
2021/05/13 07:44:48;;;;;;;10.43;9.27;;;14.50;99.90;;;;;;5031577;28;20560;-86
2021/05/13 07:47:14;;;;;;;12.32;10.13;;;14.60;99.90;;;;;;5037784;28;20181;-88
2021/05/13 07:49:41;;;;;;;14.98;10.70;;;14.60;99.90;;;;;;5035558;28;20583;-89
2021/05/13 07:52:07;;;;;;;12.40;11.10;;;14.70;99.90;;;;;;5023792;28;20550;-87
2021/05/13 07:54:34;;;;;;;11.00;9.98;;;14.90;99.90;;;;;;5033531;28;20272;-89
2021/05/13 07:57:00;;;;;;;14.15;11.25;;;15.00;99.90;;;;;;5035766;28;20540;-89
2021/05/13 07:59:26;;;;;;;13.07;11.75;;;15.00;99.90;;;;;;5034426;28;20238;-88
2021/05/13 08:01:54;;;;;;;14.50;11.00;;;15.10;99.90;;;;;;5021515;28;20711;-88
2021/05/13 08:04:20;;;;;;;12.00;10.02;;;15.10;99.90;;;;;;5035580;28;20654;-87
2021/05/13 08:06:46;;;;;;;11.48;10.30;;;15.20;99.90;;;;;;5035042;28;20278;-88
2021/05/13 08:09:13;;;;;;;14.85;11.38;;;15.20;99.90;;;;;;5034720;28;20217;-87
2021/05/13 08:11:39;;;;;;;14.70;9.82;;;15.30;99.90;;;;;;5034922;28;20547;-86
2021/05/13 08:14:06;;;;;;;16.40;10.93;;;15.50;99.90;;;;;;5034076;28;20220;-88
2021/05/13 08:16:32;;;;;;;11.60;9.63;;;15.60;99.90;;;;;;5034317;28;20290;-88
2021/05/13 08:19:00;;;;;;;11.48;10.27;;;15.70;99.90;;;;;;5035374;28;20661;-88
2021/05/13 08:21:26;;;;;;;10.85;9.73;;;15.80;99.90;;;;;;5034693;28;20192;-89
2021/05/13 08:23:52;;;;;;;12.13;10.88;;;15.80;99.90;;;;;;5034890;28;20278;-89
2021/05/13 08:26:19;;;;;;;11.95;10.38;;;15.90;99.90;;;;;;5035414;28;20191;-90
2021/05/13 08:28:45;;;;;;;11.35;9.88;;;15.90;99.90;;;;;;5034709;28;20278;-89
2021/05/13 08:31:12;;;;;;;9.30;8.40;;;15.90;99.90;;;;;;5035740;28;20198;-91
2021/05/13 08:33:38;;;;;;;9.60;8.77;;;16.00;99.90;;;;;;5036287;28;20241;-91
2021/05/13 08:36:06;;;;;;;7.68;6.93;;;16.10;99.90;;;;;;5035645;28;20280;-89
2021/05/13 08:38:32;;;;;;;9.40;8.52;;;16.10;99.90;;;;;;5036050;28;20936;-88
2021/05/13 08:40:59;;;;;;;10.18;9.10;;;16.00;99.90;;;;;;5016823;28;20228;-89
2021/05/13 08:43:27;;;;;;;12.45;9.82;;;16.10;99.90;;;;;;5022289;28;20235;-87
2021/05/13 08:45:56;;;;;;;12.43;9.07;;;16.20;99.90;;;;;;5037015;28;20670;-91
2021/05/13 08:48:25;;;;;;;10.27;9.05;;;16.30;99.90;;;;;;5035242;28;20258;-90
2021/05/13 08:50:52;;;;;;;9.25;8.30;;;16.30;99.90;;;;;;5036366;28;20198;-89
2021/05/13 08:53:20;;;;;;;11.65;10.45;;;16.40;99.90;;;;;;5035985;28;20219;-89
2021/05/13 08:55:48;;;;;;;9.13;8.00;;;16.50;99.90;;;;;;5037595;28;20195;-89
2021/05/13 08:58:14;;;;;;;8.85;7.93;;;16.60;99.90;;;;;;5032670;28;20288;-88
2021/05/13 09:00:51;;;;;;;9.15;8.15;;;16.60;99.90;;;;;;5030546;28;20215;-89
2021/05/13 09:03:31;;;;;;;9.73;8.63;;;16.70;99.90;;;;;;5028102;28;20194;-89
2021/05/13 09:05:57;;;;;;;10.98;9.40;;;16.90;99.90;;;;;;5033338;28;20304;-88
2021/05/13 09:08:25;;;;;;;8.45;7.43;;;17.00;99.90;;;;;;5025076;28;20202;-85
2021/05/13 09:10:51;;;;;;;8.82;7.65;;;17.20;99.90;;;;;;5016628;28;20193;-85
2021/05/13 09:13:27;;;;;;;9.23;8.30;;;17.20;99.90;;;;;;5033108;28;20739;-86
2021/05/13 09:15:53;;;;;;;9.85;8.82;;;17.30;99.90;;;;;;5038237;28;20192;-88
2021/05/13 09:18:31;;;;;;;7.55;6.82;;;17.40;99.90;;;;;;5035836;28;20185;-86
2021/05/13 09:21:03;;;;;;;9.40;8.30;;;17.50;99.90;;;;;;5037417;28;20199;-86
2021/05/13 09:23:31;;;;;;;8.00;7.18;;;17.60;99.90;;;;;;5039212;28;20221;-86
2021/05/13 09:26:08;;;;;;;8.35;7.35;;;17.60;99.90;;;;;;5039099;28;20288;-85
2021/05/13 09:28:35;;;;;;;8.85;7.38;;;17.50;99.90;;;;;;5047001;28;20210;-85
2021/05/13 09:31:02;;;;;;;7.35;6.57;;;17.70;99.90;;;;;;5049312;28;20252;-84
2021/05/13 09:33:29;;;;;;;8.90;6.45;;;17.80;99.90;;;;;;5055813;28;20238;-85
2021/05/13 09:35:55;;;;;;;5.85;5.10;;;17.90;99.90;;;;;;5058722;28;20169;-84
2021/05/13 09:38:33;;;;;;;5.28;4.78;;;18.10;99.90;;;;;;5043752;28;20193;-83
2021/05/13 09:41:00;;;;;;;5.43;4.90;;;18.20;99.90;;;;;;5024231;28;20266;-84
2021/05/13 09:43:31;;;;;;;6.93;4.50;;;18.00;99.90;;;;;;5034383;28;20197;-84
2021/05/13 09:45:59;;;;;;;5.13;3.55;;;18.10;99.90;;;;;;5038643;28;20212;-85
2021/05/13 09:48:39;;;;;;;6.18;4.53;;;18.10;99.90;;;;;;5044391;28;20204;-83
2021/05/13 09:51:19;;;;;;;8.88;4.72;;;18.10;99.90;;;;;;5043493;28;20169;-83
2021/05/13 09:53:48;;;;;;;7.50;4.95;;;18.10;99.90;;;;;;5054443;28;20196;-85
2021/05/13 09:56:25;;;;;;;7.00;3.17;;;18.10;99.90;;;;;;5050165;28;20249;-83
2021/05/13 09:58:52;;;;;;;3.60;3.17;;;18.10;99.90;;;;;;5054325;28;20173;-84
2021/05/13 10:01:18;;;;;;;5.75;3.08;;;18.30;99.90;;;;;;5042702;28;20193;-85
2021/05/13 10:03:46;;;;;;;3.30;2.40;;;18.60;99.90;;;;;;5045928;28;20253;-85
2021/05/13 10:06:13;;;;;;;6.20;3.80;;;18.70;99.90;;;;;;5045776;28;20264;-87
2021/05/13 10:08:41;;;;;;;5.28;3.70;;;18.70;99.90;;;;;;5047334;28;20285;-87
2021/05/13 10:11:10;;;;;;;4.65;3.13;;;18.70;99.90;;;;;;5046962;28;20234;-87
2021/05/13 10:13:36;;;;;;;4.63;2.80;;;18.90;99.90;;;;;;5044835;28;20280;-86
2021/05/13 10:16:04;;;;;;;4.03;3.33;;;18.90;99.90;;;;;;5045474;28;20552;-87
2021/05/13 10:18:37;;;;;;;5.53;3.65;;;18.90;99.90;;;;;;5052415;28;20181;-88
2021/05/13 10:21:08;;;;;;;6.07;2.97;;;19.00;99.90;;;;;;5048271;28;20586;-88
2021/05/13 10:23:37;;;;;;;6.65;4.32;;;19.30;99.90;;;;;;5048590;28;20275;-86
2021/05/13 10:26:03;;;;;;;5.15;3.20;;;19.70;99.90;;;;;;5040226;28;20189;-87
2021/05/13 10:28:33;;;;;;;7.45;3.10;;;20.10;99.90;;;;;;5039060;28;20272;-87
2021/05/13 10:31:02;;;;;;;4.55;4.10;;;20.50;99.90;;;;;;5040888;28;20181;-88
2021/05/13 10:33:44;;;;;;;5.75;4.03;;;20.20;99.90;;;;;;5042907;28;20729;-87
2021/05/13 10:36:15;;;;;;;6.20;3.90;;;20.20;99.90;;;;;;5040917;28;20423;-88
2021/05/13 10:38:44;;;;;;;4.78;3.55;;;20.00;99.90;;;;;;5043336;28;20641;-85
2021/05/13 10:41:34;;;;;;;5.47;3.95;;;19.80;99.90;;;;;;5041092;28;20506;-87
2021/05/13 10:44:38;;;;;;;5.88;4.18;;;19.30;99.90;;;;;;5040919;28;20184;-88
2021/05/13 10:47:06;;;;;;;6.43;3.20;;;19.00;99.90;;;;;;5034636;28;20188;-87
2021/05/13 10:49:46;;;;;;;7.60;3.88;;;19.10;99.90;;;;;;5039108;28;20188;-87
2021/05/13 10:52:33;;;;;;;3.92;2.92;;;19.50;99.90;;;;;;5038837;28;20191;-85
2021/05/13 10:55:01;;;;;;;5.10;3.50;;;19.90;99.90;;;;;;5039390;28;20276;-89
2021/05/13 10:57:27;;;;;;;;;;;20.20;99.90;;;;;;5040135;28;20045;-88
2021/05/13 11:00:17;;;;;;;;;;;20.10;99.90;;;;;;5040999;28;19921;-88
2021/05/13 11:02:45;;;;;;;;;;;20.20;99.90;;;;;;5023336;28;19927;-86
2021/05/13 11:05:30;;;;;;;;;;;20.10;99.90;;;;;;5041340;28;19935;-85
2021/05/13 11:08:02;;;;;;;;;;;20.00;99.90;;;;;;5039353;28;19982;-87
2021/05/13 11:10:43;;;;;;;;;;;20.10;99.90;;;;;;5039600;28;19960;-88
2021/05/13 11:13:10;;;;;;;;;;;20.10;99.90;;;;;;5041398;28;20424;-87
2021/05/13 11:15:41;;;;;;;;;;;19.80;99.90;;;;;;5040798;28;19925;-87
2021/05/13 11:18:17;;;;;;;;;;;19.60;99.90;;;;;;5023513;28;19921;-87
2021/05/13 11:20:51;;;;;;;;;;;19.40;99.90;;;;;;5040160;28;19921;-87
2021/05/13 11:23:22;;;;;;;;;;;19.20;99.90;;;;;;5039630;28;20368;-87
2021/05/13 11:25:49;;;;;;;;;;;19.20;99.90;;;;;;5040670;28;19921;-87
2021/05/13 11:28:20;;;;;;;;;;;19.30;99.90;;;;;;5038809;28;19932;-86
2021/05/13 11:30:47;;;;;;;;;;;19.50;99.90;;;;;;5038949;28;19925;-86
2021/05/13 11:33:14;;;;;;;;;;;20.10;99.90;;;;;;5039396;28;20024;-88
2021/05/13 11:35:40;;;;;;;;;;;20.90;99.90;;;;;;5037699;28;19920;-88
2021/05/13 11:38:16;;;;;;;;;;;21.70;99.90;;;;;;5039685;28;19925;-88
2021/05/13 11:40:42;;;;;;;;;;;22.20;99.90;;;;;;5039616;28;19921;-88
2021/05/13 11:43:18;;;;;;;;;;;22.10;99.90;;;;;;5038406;28;19921;-88
2021/05/13 11:45:45;;;;;;;;;;;23.00;99.90;;;;;;5041557;28;19928;-88
2021/05/13 11:48:19;;;;;;;;;;;24.00;99.90;;;;;;5045730;28;19943;-89
2021/05/13 11:50:47;;;;;;;;;;;24.40;99.90;;;;;;5059433;28;19929;-89
2021/05/13 11:53:15;;;;;;;;;;;25.00;99.90;;;;;;5055068;28;19956;-86
2021/05/13 11:55:41;;;;;;;;;;;25.70;99.90;;;;;;5049685;28;19984;-88
2021/05/13 11:58:08;;;;;;;;;;;24.40;99.90;;;;;;5048097;28;20483;-90
2021/05/13 12:00:34;;;;;;;;;;;23.70;99.90;;;;;;5051200;28;19980;-89
2021/05/13 12:03:13;;;;;;;;;;;24.40;99.90;;;;;;5049455;28;19916;-89
2021/05/13 12:05:53;;;;;;;;;;;25.20;99.90;;;;;;5042203;28;20467;-88
2021/05/13 12:08:20;;;;;;;;;;;26.00;99.90;;;;;;5034320;28;20000;-86
2021/05/13 12:10:46;;;;;;;;;;;26.80;99.90;;;;;;5047712;28;19925;-88
2021/05/13 12:13:12;;;;;;;;;;;27.20;99.90;;;;;;5047653;28;20016;-87
2021/05/13 12:15:39;;;;;;;;;;;27.80;99.90;;;;;;5046155;28;19921;-88
2021/05/13 12:18:05;;;;;;;;;;;27.10;99.90;;;;;;5040934;28;20011;-87
2021/05/13 12:20:33;;;;;;;;;;;26.00;99.90;;;;;;5036726;28;19921;-89
2021/05/13 12:23:01;;;;;;;;;;;24.70;99.90;;;;;;5036482;28;20404;-86
2021/05/13 12:25:27;;;;;;;;;;;23.60;99.90;;;;;;5018591;28;20358;-89
2021/05/13 12:27:54;;;;;;;;;;;22.60;99.90;;;;;;5038755;28;19952;-89
2021/05/13 12:30:21;;;;;;;;;;;22.20;99.90;;;;;;5039215;28;19921;-87
2021/05/13 12:32:47;;;;;;;;;;;22.10;99.90;;;;;;5034723;28;19982;-89
2021/05/13 12:35:24;;;;;;;;;;;22.30;99.90;;;;;;5039531;28;19921;-90
2021/05/13 12:37:51;;;;;;;;;;;23.50;99.90;;;;;;5041375;28;19925;-87
2021/05/13 12:40:19;;;;;;;;;;;23.80;99.90;;;;;;5038808;28;20436;-88
2021/05/13 12:42:47;;;;;;;;;;;23.30;99.90;;;;;;5049961;28;19921;-89
2021/05/13 12:45:14;;;;;;;;;;;22.90;99.90;;;;;;5051745;28;19921;-87
2021/05/13 12:47:41;;;;;;;;;;;23.50;99.90;;;;;;5046988;28;19921;-88
2021/05/13 12:50:07;;;;;;;;;;;24.30;99.90;;;;;;5050222;28;19921;-89
2021/05/13 12:52:34;;;;;;;;;;;24.30;99.80;;;;;;5058300;28;19920;-90
2021/05/13 12:55:10;;;;;;;;;;;24.80;99.70;;;;;;5047326;28;19974;-89
2021/05/13 12:57:39;;;;;;;;;;;24.70;99.90;;;;;;5037407;28;20372;-87
2021/05/13 13:00:06;;;;;;;;;;;24.20;98.60;;;;;;5036728;28;19921;-87